SWR283 FAOR-LSZH
Flight info
| Callsign | SWR283 |
|---|---|
| Flight time | N/A |
| Altitude | 34000 |
| Route | VASUR3A VASUR UZ21 ITROL UQ25 RUDAS UT941 IBRIT UM998 VUE/N0474F360 UM998 RATOD/N0466F380 UM998 CSO/N0457F400 UM2 CIRTA DCT BUKID DCT NEGAT DCT OMEDA DCT RAPUR DCT TORTU DCT ERTEV DCT CANNE Z651 KELIP |
| Aircraft | A343/H-SDE2E3FGHIJ4J5M1RWXY/LB1D1 |
Departure
| Time | N/A |
|---|---|
| Airport | O.R. Tambo International Airport (FAOR) |
Arrival
| Time | 2026-02-19 04:59 |
|---|---|
| Airport | Zürich Airport (LSZH) |
| Time | Latitude | Longitude | Altitude | Speed | Heading |
|---|---|---|---|---|---|
| 2026-02-19 04:16 | 43.79798 | 8.95372 | 39663 ft | 467 kts | 350° |
| 2026-02-19 04:16 | 43.83049 | 8.95263 | 39662 ft | 467 kts | 350° |
| 2026-02-19 04:17 | 43.92802 | 8.94966 | 39658 ft | 466 kts | 350° |
| 2026-02-19 04:17 | 43.99281 | 8.94777 | 39655 ft | 465 kts | 350° |
| 2026-02-19 04:18 | 44.05754 | 8.94586 | 39655 ft | 465 kts | 350° |
| 2026-02-19 04:18 | 44.12226 | 8.94393 | 39656 ft | 465 kts | 350° |
| 2026-02-19 04:19 | 44.18702 | 8.94200 | 39656 ft | 465 kts | 350° |
| 2026-02-19 04:19 | 44.25171 | 8.94006 | 39647 ft | 465 kts | 350° |
| 2026-02-19 04:20 | 44.31648 | 8.93812 | 39662 ft | 466 kts | 350° |
| 2026-02-19 04:20 | 44.38129 | 8.93618 | 39663 ft | 466 kts | 350° |
| 2026-02-19 04:21 | 44.47810 | 8.93329 | 39663 ft | 466 kts | 350° |
| 2026-02-19 04:21 | 44.54293 | 8.93135 | 39667 ft | 466 kts | 350° |
| 2026-02-19 04:22 | 44.60779 | 8.92939 | 39666 ft | 466 kts | 350° |
| 2026-02-19 04:22 | 44.67263 | 8.92741 | 39665 ft | 466 kts | 350° |
| 2026-02-19 04:23 | 44.73730 | 8.92544 | 39678 ft | 464 kts | 351° |
| 2026-02-19 04:23 | 44.80188 | 8.92349 | 39681 ft | 464 kts | 351° |
| 2026-02-19 04:24 | 44.86639 | 8.92152 | 39684 ft | 464 kts | 351° |
| 2026-02-19 04:25 | 44.96326 | 8.91856 | 39697 ft | 464 kts | 351° |
| 2026-02-19 04:25 | 45.02781 | 8.91659 | 39687 ft | 464 kts | 351° |
| 2026-02-19 04:26 | 45.09236 | 8.91460 | 39693 ft | 464 kts | 351° |
| 2026-02-19 04:26 | 45.15691 | 8.91262 | 39693 ft | 464 kts | 351° |
| 2026-02-19 04:27 | 45.22101 | 8.91066 | 39700 ft | 464 kts | 351° |
| 2026-02-19 04:27 | 45.28555 | 8.90867 | 39748 ft | 464 kts | 351° |
| 2026-02-19 04:28 | 45.35018 | 8.90666 | 39741 ft | 466 kts | 351° |
| 2026-02-19 04:28 | 45.41499 | 8.90465 | 39741 ft | 466 kts | 351° |
| 2026-02-19 04:29 | 45.51241 | 8.90162 | 39749 ft | 467 kts | 352° |
| 2026-02-19 04:29 | 45.57741 | 8.89960 | 39748 ft | 467 kts | 352° |
| 2026-02-19 04:30 | 45.64244 | 8.89755 | 39752 ft | 468 kts | 352° |
| 2026-02-19 04:30 | 45.70749 | 8.89550 | 39755 ft | 468 kts | 352° |
| 2026-02-19 04:31 | 45.77259 | 8.89345 | 39753 ft | 468 kts | 352° |
| 2026-02-19 04:31 | 45.83769 | 8.89140 | 39765 ft | 468 kts | 352° |
| 2026-02-19 04:32 | 45.90280 | 8.88932 | 39745 ft | 468 kts | 352° |
| 2026-02-19 04:32 | 45.93537 | 8.88829 | 39480 ft | 469 kts | 352° |
| 2026-02-19 04:33 | 46.03279 | 8.88526 | 38230 ft | 464 kts | 352° |
| 2026-02-19 04:33 | 46.06471 | 8.88424 | 37590 ft | 466 kts | 352° |
| 2026-02-19 04:33 | 46.09725 | 8.88317 | 36789 ft | 471 kts | 351° |
| 2026-02-19 04:34 | 46.13024 | 8.88206 | 35984 ft | 477 kts | 351° |
| 2026-02-19 04:34 | 46.16353 | 8.88096 | 35164 ft | 483 kts | 351° |
| 2026-02-19 04:34 | 46.19730 | 8.87897 | 34383 ft | 486 kts | 347° |
| 2026-02-19 04:34 | 46.23107 | 8.87453 | 33620 ft | 490 kts | 345° |
| 2026-02-19 04:35 | 46.26499 | 8.86885 | 32889 ft | 491 kts | 344° |
| 2026-02-19 04:35 | 46.29877 | 8.86285 | 32275 ft | 490 kts | 344° |
| 2026-02-19 04:35 | 46.33267 | 8.85693 | 31604 ft | 490 kts | 345° |
| 2026-02-19 04:35 | 46.36656 | 8.85129 | 30988 ft | 490 kts | 345° |
| 2026-02-19 04:36 | 46.40031 | 8.84591 | 30528 ft | 486 kts | 346° |
| 2026-02-19 04:36 | 46.43375 | 8.84082 | 30058 ft | 482 kts | 347° |
| 2026-02-19 04:36 | 46.46705 | 8.83583 | 29532 ft | 480 kts | 347° |
| 2026-02-19 04:37 | 46.53290 | 8.82597 | 28483 ft | 471 kts | 347° |
| 2026-02-19 04:37 | 46.56541 | 8.82107 | 27972 ft | 467 kts | 348° |
| 2026-02-19 04:37 | 46.59762 | 8.81620 | 27456 ft | 464 kts | 348° |
| 2026-02-19 04:37 | 46.62963 | 8.81135 | 26888 ft | 461 kts | 348° |
| 2026-02-19 04:38 | 46.66139 | 8.80653 | 26345 ft | 458 kts | 350° |
| 2026-02-19 04:38 | 46.69307 | 8.80172 | 25780 ft | 457 kts | 350° |
| 2026-02-19 04:38 | 46.72414 | 8.79702 | 25272 ft | 453 kts | 350° |
| 2026-02-19 04:38 | 46.75538 | 8.79226 | 24789 ft | 450 kts | 350° |
| 2026-02-19 04:39 | 46.78639 | 8.78755 | 24286 ft | 446 kts | 351° |
| 2026-02-19 04:39 | 46.81715 | 8.78286 | 23837 ft | 443 kts | 351° |
| 2026-02-19 04:39 | 46.84774 | 8.77818 | 23380 ft | 441 kts | 351° |
| 2026-02-19 04:39 | 46.87810 | 8.77355 | 22976 ft | 435 kts | 351° |
| 2026-02-19 04:40 | 46.90808 | 8.76897 | 22512 ft | 431 kts | 351° |
| 2026-02-19 04:40 | 46.93777 | 8.76442 | 22018 ft | 427 kts | 351° |
| 2026-02-19 04:40 | 46.96721 | 8.75992 | 21544 ft | 422 kts | 351° |
| 2026-02-19 04:41 | 47.02491 | 8.75079 | 20408 ft | 413 kts | 351° |
| 2026-02-19 04:41 | 47.05330 | 8.74627 | 19850 ft | 409 kts | 351° |
| 2026-02-19 04:41 | 47.08139 | 8.74169 | 19370 ft | 401 kts | 349° |
| 2026-02-19 04:41 | 47.10872 | 8.73490 | 18850 ft | 395 kts | 346° |
| 2026-02-19 04:42 | 47.13551 | 8.72733 | 18314 ft | 391 kts | 346° |
| 2026-02-19 04:42 | 47.16210 | 8.71990 | 17772 ft | 386 kts | 347° |
| 2026-02-19 04:42 | 47.18841 | 8.71270 | 17158 ft | 382 kts | 347° |
| 2026-02-19 04:42 | 47.21443 | 8.70570 | 16528 ft | 379 kts | 347° |
| 2026-02-19 04:43 | 47.24031 | 8.69878 | 15902 ft | 377 kts | 347° |
| 2026-02-19 04:43 | 47.26591 | 8.69084 | 15268 ft | 374 kts | 340° |
| 2026-02-19 04:43 | 47.29002 | 8.67717 | 14710 ft | 369 kts | 333° |
| 2026-02-19 04:43 | 47.31310 | 8.66157 | 14274 ft | 357 kts | 332° |
| 2026-02-19 04:44 | 47.33492 | 8.64657 | 13917 ft | 336 kts | 331° |
| 2026-02-19 04:44 | 47.35552 | 8.63237 | 13533 ft | 321 kts | 331° |
| 2026-02-19 04:44 | 47.37519 | 8.61785 | 12950 ft | 311 kts | 327° |
| 2026-02-19 04:45 | 47.41187 | 8.58584 | 12079 ft | 304 kts | 324° |
| 2026-02-19 04:45 | 47.42932 | 8.56806 | 11584 ft | 305 kts | 314° |
| 2026-02-19 04:45 | 47.44310 | 8.54456 | 11079 ft | 303 kts | 297° |
| 2026-02-19 04:45 | 47.45122 | 8.51620 | 10571 ft | 300 kts | 280° |
| 2026-02-19 04:46 | 47.45307 | 8.48570 | 10073 ft | 298 kts | 265° |
| 2026-02-19 04:46 | 47.45134 | 8.45529 | 9742 ft | 295 kts | 262° |
| 2026-02-19 04:46 | 47.44878 | 8.42586 | 9661 ft | 280 kts | 257° |
| 2026-02-19 04:46 | 47.44222 | 8.40077 | 9650 ft | 252 kts | 236° |
| 2026-02-19 04:47 | 47.43048 | 8.38299 | 9414 ft | 239 kts | 215° |
| 2026-02-19 04:47 | 47.41504 | 8.37406 | 9155 ft | 242 kts | 193° |
| 2026-02-19 04:47 | 47.39819 | 8.37514 | 8954 ft | 247 kts | 170° |
| 2026-02-19 04:47 | 47.38274 | 8.38673 | 8695 ft | 255 kts | 145° |
| 2026-02-19 04:48 | 47.37090 | 8.40665 | 8458 ft | 259 kts | 134° |
| 2026-02-19 04:48 | 47.35824 | 8.42489 | 8197 ft | 251 kts | 152° |
| 2026-02-19 04:48 | 47.34330 | 8.43744 | 7917 ft | 246 kts | 159° |
| 2026-02-19 04:49 | 47.31265 | 8.45887 | 7486 ft | 242 kts | 161° |
| 2026-02-19 04:49 | 47.29743 | 8.46931 | 7270 ft | 240 kts | 161° |
| 2026-02-19 04:49 | 47.28250 | 8.47959 | 7186 ft | 233 kts | 161° |
| 2026-02-19 04:49 | 47.26801 | 8.48960 | 7092 ft | 227 kts | 160° |
| 2026-02-19 04:50 | 47.25410 | 8.49922 | 7052 ft | 214 kts | 161° |
| 2026-02-19 04:50 | 47.24111 | 8.50821 | 6966 ft | 200 kts | 161° |
| 2026-02-19 04:50 | 47.22863 | 8.51673 | 6729 ft | 196 kts | 161° |
| 2026-02-19 04:50 | 47.21630 | 8.52510 | 6437 ft | 194 kts | 162° |
| 2026-02-19 04:51 | 47.20435 | 8.53443 | 6143 ft | 196 kts | 153° |
| 2026-02-19 04:51 | 47.19427 | 8.54828 | 6000 ft | 203 kts | 133° |
| 2026-02-19 04:51 | 47.18778 | 8.56709 | 5996 ft | 211 kts | 111° |
| 2026-02-19 04:51 | 47.18637 | 8.58870 | 5992 ft | 216 kts | 87° |
| 2026-02-19 04:52 | 47.19039 | 8.61004 | 5990 ft | 218 kts | 68° |
| 2026-02-19 04:52 | 47.19671 | 8.63029 | 5955 ft | 217 kts | 65° |
| 2026-02-19 04:52 | 47.20326 | 8.65024 | 5654 ft | 216 kts | 65° |
| 2026-02-19 04:53 | 47.22093 | 8.68507 | 5038 ft | 212 kts | 29° |
| 2026-02-19 04:53 | 47.23412 | 8.69211 | 4981 ft | 192 kts | 1° |
| 2026-02-19 04:53 | 47.24670 | 8.69089 | 4987 ft | 176 kts | 339° |
| 2026-02-19 04:53 | 47.25799 | 8.68483 | 4991 ft | 172 kts | 328° |
| 2026-02-19 04:54 | 47.26887 | 8.67750 | 5000 ft | 172 kts | 326° |
| 2026-02-19 04:54 | 47.27972 | 8.67006 | 4992 ft | 172 kts | 325° |
| 2026-02-19 04:54 | 47.29056 | 8.66266 | 4994 ft | 172 kts | 326° |
| 2026-02-19 04:54 | 47.30140 | 8.65531 | 4989 ft | 172 kts | 325° |
| 2026-02-19 04:55 | 47.31212 | 8.64805 | 4808 ft | 172 kts | 325° |
| 2026-02-19 04:55 | 47.32301 | 8.64063 | 4559 ft | 170 kts | 325° |
| 2026-02-19 04:55 | 47.33348 | 8.63351 | 4287 ft | 162 kts | 325° |
| 2026-02-19 04:55 | 47.34340 | 8.62674 | 4016 ft | 152 kts | 325° |
| 2026-02-19 04:56 | 47.35277 | 8.62032 | 3783 ft | 145 kts | 326° |
| 2026-02-19 04:56 | 47.36181 | 8.61409 | 3563 ft | 143 kts | 326° |
| 2026-02-19 04:56 | 47.37082 | 8.60791 | 3360 ft | 143 kts | 326° |
| 2026-02-19 04:57 | 47.38878 | 8.59565 | 2927 ft | 141 kts | 328° |
| 2026-02-19 04:57 | 47.39774 | 8.58956 | 2728 ft | 142 kts | 330° |
| 2026-02-19 04:57 | 47.40684 | 8.58327 | 2485 ft | 147 kts | 330° |
| 2026-02-19 04:57 | 47.41613 | 8.57677 | 2243 ft | 148 kts | 334° |
| 2026-02-19 04:58 | 47.42542 | 8.57044 | 2016 ft | 147 kts | 334° |
| 2026-02-19 04:58 | 47.43466 | 8.56404 | 1771 ft | 146 kts | 334° |
| 2026-02-19 04:58 | 47.44088 | 8.55987 | 1617 ft | 144 kts | 334° |
| 2026-02-19 04:58 | 47.44970 | 8.55380 | 1436 ft | 139 kts | 334° |
| 2026-02-19 04:59 | 47.45764 | 8.54837 | 1404 ft | 104 kts | 335° |
| 2026-02-19 04:59 | 47.46261 | 8.54498 | 1401 ft | 52 kts | 335° |
| 2026-02-19 04:59 | 47.46490 | 8.54337 | 1383 ft | 31 kts | 334° |
| 2026-02-19 04:59 | 47.46668 | 8.54213 | 1381 ft | 26 kts | 335° |
| 2026-02-19 05:00 | 47.46813 | 8.54115 | 1383 ft | 21 kts | 335° |
| 2026-02-19 05:00 | 47.46934 | 8.54037 | 1384 ft | 19 kts | 344° |
| 2026-02-19 05:00 | 47.47021 | 8.54136 | 1385 ft | 18 kts | 86° |
| 2026-02-19 05:01 | 47.46658 | 8.54499 | 1385 ft | 23 kts | 154° |
| 2026-02-19 05:01 | 47.46525 | 8.54593 | 1402 ft | 20 kts | 154° |
| 2026-02-19 05:01 | 47.46397 | 8.54681 | 1388 ft | 21 kts | 155° |
| 2026-02-19 05:02 | 47.46306 | 8.54817 | 1401 ft | 19 kts | 101° |
| 2026-02-19 05:02 | 47.46291 | 8.55000 | 1401 ft | 18 kts | 96° |
| 2026-02-19 05:02 | 47.46278 | 8.55170 | 1403 ft | 11 kts | 105° |
| 2026-02-19 05:02 | 47.46245 | 8.55195 | 1406 ft | 7 kts | 170° |
| 2026-02-19 05:03 | 47.46207 | 8.55191 | 1405 ft | 3 kts | 185° |
| 2026-02-19 05:03 | 47.46197 | 8.55189 | 1405 ft | 0 kts | 185° |